Time;durP1;ratioP1;P1;durP2;ratioP2;P2;SDS_P1;SDS_P2;PMS_P1;PMS_P2;Temp;Humidity;BMP_temperature;BMP_pressure;BME280_temperature;BME280_humidity;BME280_pressure;Samples;Min_cycle;Max_cycle;Signal;HPM_P1;HPM_P2
2023/12/21 00:01:51;;;;;;;0.80;0.80;;;;;;;5.91;100.00;98300.19;4136160;28;20209;-50
2023/12/21 00:03:53;;;;;;;0.60;0.60;;;;;;;5.86;100.00;98291.88;4121348;28;20566;-50
2023/12/21 00:05:55;;;;;;;1.00;1.00;;;;;;;5.88;100.00;98290.59;4135583;28;20216;-49
2023/12/21 00:07:56;;;;;;;0.90;0.90;;;;;;;5.86;100.00;98291.88;4134635;28;20222;-50
2023/12/21 00:09:58;;;;;;;0.55;0.55;;;;;;;5.89;100.00;98280.56;4137892;28;20210;-50
2023/12/21 00:12:01;;;;;;;0.88;0.88;;;;;;;5.89;100.00;98286.81;4138030;28;20205;-52
2023/12/21 00:14:02;;;;;;;0.60;0.60;;;;;;;5.89;100.00;98270.53;4136117;28;20252;-49
2023/12/21 00:16:05;;;;;;;1.13;1.13;;;;;;;5.88;100.00;98268.88;4136685;28;20209;-50
2023/12/21 00:18:07;;;;;;;0.60;0.60;;;;;;;5.90;100.00;98274.09;4134067;28;20273;-50
2023/12/21 00:20:09;;;;;;;0.65;0.65;;;;;;;5.88;100.00;98258.00;4136123;28;20260;-50
2023/12/21 00:22:11;;;;;;;0.55;0.55;;;;;;;5.90;100.00;98244.22;4137700;28;20580;-49
2023/12/21 00:24:13;;;;;;;0.63;0.63;;;;;;;5.94;100.00;98242.69;4138960;28;20263;-50
2023/12/21 00:26:14;;;;;;;0.57;0.57;;;;;;;5.95;100.00;98238.94;4132718;28;20226;-49
2023/12/21 00:28:16;;;;;;;0.80;0.80;;;;;;;5.97;100.00;98253.13;4143156;28;20584;-54
2023/12/21 00:30:18;;;;;;;0.60;0.60;;;;;;;5.97;100.00;98247.69;4135022;28;20226;-49
2023/12/21 00:32:20;;;;;;;0.70;0.70;;;;;;;5.99;100.00;98242.84;4131803;28;20300;-49
2023/12/21 00:34:21;;;;;;;2.42;0.70;;;;;;;5.95;100.00;98242.47;4135895;28;20232;-53
2023/12/21 00:36:23;;;;;;;0.50;0.50;;;;;;;6.01;100.00;98235.28;4119599;28;20213;-49
2023/12/21 00:38:25;;;;;;;0.60;0.60;;;;;;;5.96;100.00;98221.59;4137372;28;20237;-50
2023/12/21 00:40:27;;;;;;;0.50;0.50;;;;;;;6.00;100.00;98217.34;4137798;28;20209;-52
2023/12/21 00:42:31;;;;;;;0.65;0.65;;;;;;;6.01;100.00;98202.69;4141023;28;20267;-53
2023/12/21 00:44:33;;;;;;;0.80;0.80;;;;;;;5.99;100.00;98197.53;4125671;28;20634;-50
2023/12/21 00:46:35;;;;;;;0.60;0.60;;;;;;;5.99;100.00;98196.69;4133949;28;20300;-51
2023/12/21 00:48:37;;;;;;;0.55;0.55;;;;;;;6.03;100.00;98200.59;4135387;28;20229;-52
2023/12/21 00:50:39;;;;;;;0.60;0.60;;;;;;;6.02;100.00;98199.75;4136911;28;20315;-51
2023/12/21 00:52:41;;;;;;;0.70;0.70;;;;;;;6.02;100.00;98188.09;4136281;28;20218;-51
2023/12/21 00:54:42;;;;;;;0.73;0.73;;;;;;;6.06;100.00;98181.13;4134948;28;20210;-51
2023/12/21 00:56:44;;;;;;;0.75;0.75;;;;;;;6.04;100.00;98180.53;4135031;28;20571;-53
2023/12/21 00:58:46;;;;;;;0.70;0.70;;;;;;;6.04;100.00;98164.25;4138476;28;20268;-53
2023/12/21 01:00:48;;;;;;;0.60;0.60;;;;;;;6.05;100.00;98165.91;4136243;28;20257;-51
2023/12/21 01:02:50;;;;;;;0.68;0.68;;;;;;;6.08;100.00;98160.03;4133569;28;20244;-50
2023/12/21 01:04:52;;;;;;;0.50;0.50;;;;;;;6.10;100.00;98168.75;4135079;28;20680;-51
2023/12/21 01:06:53;;;;;;;0.55;0.55;;;;;;;6.11;100.00;98160.38;4134356;28;20221;-51
2023/12/21 01:08:55;;;;;;;0.73;0.73;;;;;;;6.10;100.00;98153.28;4140548;28;20236;-49
2023/12/21 01:10:57;;;;;;;0.50;0.50;;;;;;;6.06;100.00;98151.25;4148631;28;20241;-50
2023/12/21 01:12:59;;;;;;;0.50;0.50;;;;;;;6.11;100.00;98160.38;4135969;28;20272;-49
2023/12/21 01:15:01;;;;;;;0.50;0.50;;;;;;;6.11;100.00;98159.53;4136281;28;20244;-49
2023/12/21 01:17:04;;;;;;;0.73;0.73;;;;;;;6.12;100.00;98144.91;4134713;28;20210;-50
2023/12/21 01:19:05;;;;;;;0.63;0.63;;;;;;;6.15;100.00;98150.69;4133759;28;20235;-49
2023/12/21 01:21:07;;;;;;;0.80;0.80;;;;;;;6.10;100.00;98158.69;4139649;28;20260;-49
2023/12/21 01:23:09;;;;;;;0.63;0.63;;;;;;;6.13;100.00;98165.56;4132861;28;20209;-50
2023/12/21 01:25:11;;;;;;;0.82;0.82;;;;;;;6.07;100.00;98166.47;4134540;28;20215;-50
2023/12/21 01:27:12;;;;;;;0.70;0.70;;;;;;;6.10;100.00;98155.19;4141037;28;20297;-50
2023/12/21 01:29:30;;;;;;;0.50;0.50;;;;;;;6.11;100.00;98159.53;4136990;28;20205;-50
2023/12/21 01:31:32;;;;;;;0.70;0.70;;;;;;;6.11;100.00;98159.53;4133431;28;20273;-49
2023/12/21 01:33:34;;;;;;;0.50;0.50;;;;;;;6.11;100.00;98164.97;4140412;28;20210;-50
2023/12/21 01:35:36;;;;;;;0.60;0.60;;;;;;;6.09;100.00;98148.91;4135693;28;20276;-50
2023/12/21 01:37:37;;;;;;;0.60;0.60;;;;;;;6.17;100.00;98145.03;4136215;28;20698;-50
2023/12/21 01:39:39;;;;;;;0.93;0.93;;;;;;;6.21;100.00;98146.22;4136789;28;20645;-50
2023/12/21 01:41:41;;;;;;;0.40;0.40;;;;;;;6.20;100.00;98136.41;4134060;28;20622;-49
2023/12/21 01:43:43;;;;;;;0.80;0.80;;;;;;;6.22;100.00;98134.31;4136534;28;20582;-49
2023/12/21 01:45:44;;;;;;;0.60;0.60;;;;;;;6.21;100.00;98116.34;4138444;28;20201;-49
2023/12/21 01:47:47;;;;;;;0.70;0.70;;;;;;;6.18;100.00;98116.81;4136914;28;20603;-49
2023/12/21 01:49:49;;;;;;;0.57;0.57;;;;;;;6.21;100.00;98122.63;4138038;28;20217;-49
2023/12/21 01:51:51;;;;;;;0.60;0.60;;;;;;;6.17;100.00;98107.00;4139758;28;20229;-49
2023/12/21 01:53:53;;;;;;;0.60;0.60;;;;;;;6.19;100.00;98108.44;4137803;28;20214;-49
2023/12/21 01:55:55;;;;;;;0.93;0.93;;;;;;;6.23;100.00;98109.63;4137997;28;20847;-50
2023/12/21 01:57:58;;;;;;;0.50;0.50;;;;;;;6.20;100.00;98104.66;4143071;28;20686;-49
2023/12/21 02:00:00;;;;;;;0.70;0.70;;;;;;;6.21;100.00;98089.19;4135257;28;20260;-49
2023/12/21 02:02:06;;;;;;;0.60;0.60;;;;;;;6.21;100.00;98094.59;4136133;28;20287;-49
2023/12/21 02:04:08;;;;;;;0.60;0.60;;;;;;;6.23;100.00;98097.94;4136310;28;20555;-49
2023/12/21 02:06:11;;;;;;;0.63;0.63;;;;;;;6.21;100.00;98100.03;4121950;28;20657;-50
2023/12/21 02:08:13;;;;;;;0.70;0.70;;;;;;;6.22;100.00;98082.72;4138446;28;20793;-49
2023/12/21 02:10:14;;;;;;;0.65;0.65;;;;;;;6.25;100.00;98082.22;4128131;28;20311;-50
2023/12/21 02:12:16;;;;;;;0.60;0.60;;;;;;;6.26;100.00;98075.72;4135585;28;20229;-50
2023/12/21 02:14:18;;;;;;;0.52;0.52;;;;;;;6.28;100.00;98062.75;4137803;28;20621;-50
2023/12/21 02:16:37;;;;;;;0.63;0.63;;;;;;;6.29;100.00;98065.22;4121803;28;20233;-49
2023/12/21 02:18:39;;;;;;;0.70;0.70;;;;;;;6.29;100.00;98064.41;4124711;28;20225;-50
2023/12/21 02:20:43;;;;;;;0.70;0.70;;;;;;;6.28;100.00;98057.31;4137512;28;20228;-49
2023/12/21 02:22:47;;;;;;;0.50;0.50;;;;;;;6.33;100.00;98060.16;4123869;28;20273;-49
2023/12/21 02:24:49;;;;;;;0.60;0.60;;;;;;;6.31;100.00;98063.13;4134584;28;20213;-50
2023/12/21 02:26:51;;;;;;;0.73;0.73;;;;;;;6.30;100.00;98061.44;4136748;28;20213;-50
2023/12/21 02:28:53;;;;;;;0.70;0.70;;;;;;;6.27;100.00;98055.66;4140375;28;20283;-51
2023/12/21 02:30:55;;;;;;;0.70;0.70;;;;;;;6.32;100.00;98039.47;4126130;28;20280;-49
2023/12/21 02:32:57;;;;;;;0.50;0.50;;;;;;;6.30;100.00;98028.84;4138267;28;20219;-49
2023/12/21 02:34:59;;;;;;;0.63;0.63;;;;;;;6.27;100.00;98015.75;4135026;28;20217;-51
2023/12/21 02:37:01;;;;;;;0.60;0.60;;;;;;;6.32;100.00;98009.59;4136481;28;20292;-50
2023/12/21 02:39:03;;;;;;;0.60;0.60;;;;;;;6.31;100.00;98005.22;4137867;28;20233;-51
2023/12/21 02:41:04;;;;;;;0.77;0.77;;;;;;;6.35;100.00;98001.00;4138323;28;20288;-51
2023/12/21 02:43:06;;;;;;;0.80;0.80;;;;;;;6.33;100.00;98006.66;4136531;28;20651;-52
2023/12/21 02:45:08;;;;;;;0.60;0.60;;;;;;;6.33;100.00;98005.81;4136896;28;20205;-52
2023/12/21 02:47:10;;;;;;;0.73;0.73;;;;;;;6.34;100.00;98012.91;4137446;28;20583;-51
2023/12/21 02:49:12;;;;;;;0.88;0.88;;;;;;;6.36;100.00;98021.66;4135416;28;20235;-49
2023/12/21 02:51:14;;;;;;;0.60;0.60;;;;;;;6.41;100.00;98024.47;4135991;28;20272;-51
2023/12/21 02:53:16;;;;;;;0.77;0.77;;;;;;;6.39;100.00;98003.00;4133273;28;20214;-50
2023/12/21 02:55:17;;;;;;;0.98;0.98;;;;;;;6.39;100.00;97994.00;4121372;28;20794;-50
2023/12/21 02:57:19;;;;;;;0.70;0.70;;;;;;;6.38;100.00;97992.34;4136597;28;20210;-50
2023/12/21 02:59:21;;;;;;;0.80;0.80;;;;;;;6.44;100.00;97983.25;4135308;28;20297;-51
2023/12/21 03:01:22;;;;;;;0.65;0.65;;;;;;;6.41;100.00;97986.44;4136955;28;20210;-51
2023/12/21 03:03:24;;;;;;;0.90;0.90;;;;;;;6.44;100.00;97986.81;4136748;28;20750;-52
2023/12/21 03:05:26;;;;;;;0.50;0.50;;;;;;;6.46;100.00;97981.13;4142625;28;20225;-56
2023/12/21 03:07:28;;;;;;;0.60;0.60;;;;;;;6.46;100.00;97978.41;4133841;28;20533;-51
2023/12/21 03:09:30;;;;;;;0.63;0.63;;;;;;;6.45;100.00;97971.31;4133452;28;20210;-50
2023/12/21 03:11:32;;;;;;;0.85;0.85;;;;;;;6.49;100.00;97967.88;4133091;28;20284;-50
2023/12/21 03:13:34;;;;;;;0.60;0.60;;;;;;;6.49;100.00;97967.06;4137713;28;20316;-50
2023/12/21 03:15:36;;;;;;;0.77;0.77;;;;;;;6.52;100.00;97958.44;4138085;28;20213;-51
2023/12/21 03:17:37;;;;;;;0.68;0.68;;;;;;;6.47;100.00;97952.88;4145283;28;20665;-51
2023/12/21 03:19:39;;;;;;;0.70;0.70;;;;;;;6.52;100.00;97961.16;4136032;28;20218;-51
2023/12/21 03:21:41;;;;;;;0.70;0.70;;;;;;;6.54;100.00;97953.56;4138967;28;20197;-51
2023/12/21 03:23:42;;;;;;;0.63;0.63;;;;;;;6.53;100.00;97962.81;4139275;28;20210;-50
2023/12/21 03:25:44;;;;;;;0.47;0.47;;;;;;;6.56;100.00;97957.72;4134973;28;20221;-50
2023/12/21 03:27:47;;;;;;;0.70;0.70;;;;;;;6.56;100.00;97965.06;4138553;28;20695;-50
2023/12/21 03:29:49;;;;;;;0.60;0.60;;;;;;;6.56;100.00;97951.47;4134392;28;20210;-51
2023/12/21 03:31:52;;;;;;;0.80;0.80;;;;;;;6.58;100.00;97958.31;4135750;28;20706;-50
2023/12/21 03:33:54;;;;;;;0.57;0.57;;;;;;;6.62;100.00;97948.59;4137105;28;20210;-51
2023/12/21 03:35:56;;;;;;;0.60;0.60;;;;;;;6.62;100.00;97955.97;4136736;28;20261;-51
2023/12/21 03:37:58;;;;;;;0.68;0.68;;;;;;;6.62;100.00;97956.75;4138368;28;20749;-52
2023/12/21 03:39:59;;;;;;;0.60;0.60;;;;;;;6.64;100.00;97953.81;4125712;28;20213;-50
2023/12/21 03:42:04;;;;;;;0.60;0.60;;;;;;;6.63;100.00;97942.09;4135953;28;20201;-52
2023/12/21 03:44:06;;;;;;;0.63;0.63;;;;;;;6.63;100.00;97946.72;4135659;28;20210;-52
2023/12/21 03:46:09;;;;;;;0.60;0.60;;;;;;;6.68;100.00;97938.69;4135149;28;20213;-50
2023/12/21 03:48:11;;;;;;;0.52;0.52;;;;;;;6.69;100.00;97934.91;4137431;28;20231;-50
2023/12/21 03:50:13;;;;;;;0.60;0.60;;;;;;;6.70;100.00;97936.56;4133939;28;20202;-51
2023/12/21 03:52:15;;;;;;;0.80;0.80;;;;;;;6.69;100.00;97924.03;4135206;28;20581;-52
2023/12/21 03:54:17;;;;;;;0.70;0.70;;;;;;;6.71;100.00;97924.59;4136472;28;20223;-52
2023/12/21 03:56:18;;;;;;;0.80;0.80;;;;;;;6.72;100.00;97907.22;4137651;28;20786;-50
2023/12/21 03:58:20;;;;;;;0.70;0.70;;;;;;;6.73;100.00;97898.00;4136637;28;20233;-50
2023/12/21 04:00:22;;;;;;;0.90;0.90;;;;;;;6.73;100.00;97895.28;4134797;28;20942;-50
2023/12/21 04:02:24;;;;;;;0.75;0.75;;;;;;;6.76;100.00;97913.84;4142579;28;20205;-56
2023/12/21 04:04:26;;;;;;;0.63;0.63;;;;;;;6.78;100.00;97895.38;4135383;28;20209;-50
2023/12/21 04:06:29;;;;;;;0.60;0.60;;;;;;;6.75;100.00;97896.69;4133603;28;20253;-55
2023/12/21 04:08:31;;;;;;;0.65;0.65;;;;;;;6.81;100.00;97898.44;4141792;28;20714;-50
2023/12/21 04:10:32;;;;;;;0.70;0.70;;;;;;;6.85;100.00;97901.50;4142159;28;20255;-53
2023/12/21 04:12:34;;;;;;;0.60;0.60;;;;;;;6.86;100.00;97903.16;4132419;28;20710;-51
2023/12/21 04:14:36;;;;;;;0.90;0.90;;;;;;;6.87;100.00;97893.94;4135366;28;20718;-51
2023/12/21 04:16:38;;;;;;;0.68;0.68;;;;;;;6.83;100.00;97898.22;4135713;28;20206;-53
2023/12/21 04:18:40;;;;;;;0.73;0.73;;;;;;;6.88;100.00;97895.59;4126402;28;20225;-52
2023/12/21 04:20:42;;;;;;;0.65;0.65;;;;;;;6.86;100.00;97890.41;4133119;28;20602;-53
2023/12/21 04:22:43;;;;;;;0.65;0.65;;;;;;;6.88;100.00;97880.09;4136479;28;20922;-49
2023/12/21 04:24:46;;;;;;;0.95;0.95;;;;;;;6.85;100.00;97871.59;4121374;28;20278;-50
2023/12/21 04:26:47;;;;;;;0.63;0.63;;;;;;;6.86;100.00;97874.09;4118277;28;20211;-50
2023/12/21 04:28:49;;;;;;;0.70;0.70;;;;;;;6.92;100.00;97880.44;4134181;28;20256;-51
2023/12/21 04:30:51;;;;;;;0.80;0.80;;;;;;;6.86;100.00;97884.13;4137051;28;20213;-53
2023/12/21 04:32:53;;;;;;;0.80;0.80;;;;;;;6.92;100.00;97886.72;4136473;28;20261;-50
2023/12/21 04:34:55;;;;;;;0.70;0.70;;;;;;;6.87;100.00;97873.00;4142529;28;20201;-50
2023/12/21 04:36:57;;;;;;;0.70;0.70;;;;;;;6.91;100.00;97873.34;4133623;28;20679;-51
2023/12/21 04:38:58;;;;;;;0.50;0.50;;;;;;;6.91;100.00;97857.03;4136819;28;20316;-49
2023/12/21 04:41:00;;;;;;;0.60;0.60;;;;;;;6.93;100.00;97844.00;4136541;28;20201;-50
2023/12/21 04:43:02;;;;;;;0.77;0.77;;;;;;;6.94;100.00;97840.22;4136288;28;20671;-51
2023/12/21 04:45:05;;;;;;;0.80;0.80;;;;;;;6.91;100.00;97835.28;4121596;28;20304;-52
2023/12/21 04:47:09;;;;;;;0.75;0.75;;;;;;;6.92;100.00;97820.63;4138933;28;20221;-53
2023/12/21 04:49:26;;;;;;;0.80;0.80;;;;;;;6.90;100.00;97814.59;4142534;28;20260;-52
2023/12/21 04:51:28;;;;;;;0.52;0.52;;;;;;;6.95;100.00;97820.94;4135898;28;20220;-51
2023/12/21 04:53:30;;;;;;;0.70;0.70;;;;;;;6.90;100.00;97822.75;4137742;28;20245;-53
2023/12/21 04:55:33;;;;;;;0.75;0.75;;;;;;;6.90;100.00;97823.56;4136677;28;20654;-54
2023/12/21 04:57:35;;;;;;;0.50;0.50;;;;;;;6.93;100.00;97822.25;4135828;28;20656;-50
2023/12/21 04:59:40;;;;;;;0.40;0.40;;;;;;;6.94;100.00;97821.19;4134397;28;20272;-51
2023/12/21 05:01:42;;;;;;;0.75;0.75;;;;;;;6.93;100.00;97828.53;4151284;28;20205;-51
2023/12/21 05:03:44;;;;;;;0.60;0.60;;;;;;;6.95;100.00;97826.38;4135479;28;20256;-51
2023/12/21 05:05:46;;;;;;;0.73;0.73;;;;;;;6.95;100.00;97825.59;4134364;28;20246;-50
2023/12/21 05:07:49;;;;;;;0.70;0.70;;;;;;;6.94;100.00;97818.47;4118493;28;20261;-50
2023/12/21 05:09:50;;;;;;;0.75;0.75;;;;;;;6.96;100.00;97806.28;4133592;28;20218;-52
2023/12/21 05:11:52;;;;;;;0.68;0.68;;;;;;;6.95;100.00;97798.38;4135732;28;20228;-51
2023/12/21 05:13:55;;;;;;;1.58;1.42;;;;;;;6.94;100.00;97797.56;4138171;28;20628;-52
2023/12/21 05:15:56;;;;;;;0.55;0.55;;;;;;;6.97;100.00;97801.69;4137227;28;20210;-53
2023/12/21 05:17:59;;;;;;;0.70;0.70;;;;;;;6.96;100.00;97794.59;4139760;28;20237;-49
2023/12/21 05:20:01;;;;;;;0.70;0.70;;;;;;;6.97;100.00;97785.38;4137296;28;20222;-54
2023/12/21 05:22:03;;;;;;;0.60;0.60;;;;;;;6.98;100.00;97787.00;4139134;28;20209;-50
2023/12/21 05:24:05;;;;;;;0.75;0.75;;;;;;;6.98;100.00;97781.56;4138849;28;20288;-50
2023/12/21 05:26:16;;;;;;;1.65;1.55;;;;;;;7.00;100.00;97804.75;4119576;28;20206;-50
2023/12/21 05:28:17;;;;;;;0.60;0.60;;;;;;;7.03;100.00;97801.50;4139059;28;20237;-51
2023/12/21 05:30:20;;;;;;;0.60;0.60;;;;;;;7.01;100.00;97787.34;4140461;28;20360;-50
2023/12/21 05:32:22;;;;;;;0.73;0.73;;;;;;;7.02;100.00;97782.75;4135157;28;20248;-52
2023/12/21 05:34:24;;;;;;;0.73;0.73;;;;;;;7.02;100.00;97771.88;4137508;28;20213;-52
2023/12/21 05:36:25;;;;;;;0.80;0.80;;;;;;;7.04;100.00;97775.16;4139876;28;20220;-50
2023/12/21 05:38:28;;;;;;;0.77;0.77;;;;;;;7.03;100.00;97768.06;4139162;28;20738;-50
2023/12/21 05:40:29;;;;;;;0.50;0.50;;;;;;;7.04;100.00;97767.84;4138317;28;20301;-52
2023/12/21 05:42:31;;;;;;;0.63;0.63;;;;;;;7.09;100.00;97761.66;4140071;28;20213;-50
2023/12/21 05:44:33;;;;;;;0.70;0.70;;;;;;;7.04;100.00;97747.94;4138664;28;20210;-50
2023/12/21 05:46:35;;;;;;;0.60;0.60;;;;;;;7.03;100.00;97746.31;4135383;28;20343;-51
2023/12/21 05:48:37;;;;;;;0.70;0.70;;;;;;;7.10;100.00;97736.09;4139629;28;20229;-51
2023/12/21 05:50:39;;;;;;;0.70;0.70;;;;;;;7.07;100.00;97736.56;4143170;28;20959;-51
2023/12/21 05:52:40;;;;;;;0.63;0.63;;;;;;;7.12;100.00;97737.50;4137607;28;20423;-51
2023/12/21 05:54:42;;;;;;;0.68;0.68;;;;;;;7.15;100.00;97744.34;4140993;28;20652;-53
2023/12/21 05:56:44;;;;;;;0.82;0.82;;;;;;;7.13;100.00;97724.69;4136220;28;20206;-52
2023/12/21 05:58:46;;;;;;;0.73;0.73;;;;;;;7.10;100.00;97709.69;4138114;28;20233;-51
2023/12/21 06:00:48;;;;;;;0.63;0.63;;;;;;;7.10;100.00;97706.16;4138395;28;20252;-52
2023/12/21 06:02:49;;;;;;;0.52;0.52;;;;;;;7.12;100.00;97717.63;4135661;28;20296;-51
2023/12/21 06:04:51;;;;;;;0.57;0.57;;;;;;;7.11;100.00;97705.09;4137428;28;20212;-50
2023/12/21 06:06:53;;;;;;;0.60;0.60;;;;;;;7.14;100.00;97710.88;4135566;28;20206;-51
2023/12/21 06:08:55;;;;;;;0.77;0.77;;;;;;;7.13;100.00;97711.94;4138442;28;20265;-55
2023/12/21 06:10:57;;;;;;;0.65;0.65;;;;;;;7.13;100.00;97720.09;4150484;28;20204;-51
2023/12/21 06:12:59;;;;;;;0.75;0.75;;;;;;;7.14;100.00;97720.91;4147259;28;20240;-51
2023/12/21 06:15:01;;;;;;;0.70;0.70;;;;;;;7.17;100.00;97715.00;4135829;28;20240;-52
2023/12/21 06:17:03;;;;;;;0.65;0.65;;;;;;;7.14;100.00;97710.88;4117358;28;20834;-51
2023/12/21 06:19:09;;;;;;;0.50;0.50;;;;;;;7.16;100.00;97707.91;4141191;28;20228;-52
2023/12/21 06:21:11;;;;;;;0.65;0.65;;;;;;;7.17;100.00;97717.69;4138950;28;20213;-52
2023/12/21 06:23:13;;;;;;;0.70;0.70;;;;;;;7.15;100.00;97717.13;4123585;28;20209;-51
2023/12/21 06:25:15;;;;;;;0.88;0.88;;;;;;;7.20;100.00;97722.63;4138307;28;20713;-52
2023/12/21 06:27:17;;;;;;;0.60;0.60;;;;;;;7.20;100.00;97719.91;4130436;28;20247;-54
2023/12/21 06:29:19;;;;;;;0.60;0.60;;;;;;;7.21;100.00;97705.25;4135721;28;20209;-52
2023/12/21 06:31:20;;;;;;;0.80;0.80;;;;;;;7.18;100.00;97711.19;4135396;28;20678;-53
2023/12/21 06:33:22;;;;;;;0.70;0.70;;;;;;;7.14;100.00;97710.88;4135546;28;20232;-53
2023/12/21 06:35:24;;;;;;;0.50;0.50;;;;;;;7.19;100.00;97704.66;4138684;28;20241;-52
2023/12/21 06:37:26;;;;;;;0.70;0.70;;;;;;;7.17;100.00;97707.63;4124588;28;20214;-52
2023/12/21 06:39:28;;;;;;;0.60;0.60;;;;;;;7.15;100.00;97698.91;4136922;28;20634;-52
2023/12/21 06:41:29;;;;;;;0.60;0.60;;;;;;;7.21;100.00;97686.22;4133763;28;20218;-51
2023/12/21 06:43:31;;;;;;;0.60;0.60;;;;;;;7.17;100.00;97682.34;4134178;28;20210;-53
2023/12/21 06:45:33;;;;;;;0.73;0.73;;;;;;;7.22;100.00;97685.16;4135670;28;20210;-51
2023/12/21 06:47:34;;;;;;;0.60;0.60;;;;;;;7.21;100.00;97683.50;4136987;28;20234;-53
2023/12/21 06:49:36;;;;;;;0.63;0.63;;;;;;;7.24;100.00;97672.09;4137636;28;20597;-50
2023/12/21 06:51:38;;;;;;;0.50;0.50;;;;;;;7.25;100.00;97658.25;4131681;28;20225;-53
2023/12/21 06:53:40;;;;;;;0.65;0.65;;;;;;;7.25;100.00;97635.66;4140951;28;20259;-51
2023/12/21 06:55:42;;;;;;;0.60;0.60;;;;;;;7.26;100.00;97631.88;4127119;28;20523;-54
2023/12/21 06:57:44;;;;;;;0.70;0.70;;;;;;;7.24;100.00;97634.84;4138329;28;20312;-51
2023/12/21 06:59:46;;;;;;;0.90;0.90;;;;;;;7.24;100.00;97647.63;4134940;28;20201;-52
2023/12/21 07:01:48;;;;;;;0.65;0.65;;;;;;;7.28;100.00;97651.50;4136837;28;20201;-50
2023/12/21 07:03:50;;;;;;;0.63;0.63;;;;;;;7.29;100.00;97643.06;4134599;28;20237;-50
2023/12/21 07:05:51;;;;;;;0.65;0.65;;;;;;;7.30;100.00;97635.75;4139388;28;20213;-52
2023/12/21 07:07:57;;;;;;;0.80;0.80;;;;;;;7.26;100.00;97620.97;4141226;28;20217;-52
2023/12/21 07:09:58;;;;;;;0.60;0.60;;;;;;;7.26;100.00;97616.38;4139905;28;20284;-50
2023/12/21 07:12:00;;;;;;;1.75;1.15;;;;;;;7.27;100.00;97612.56;4137603;28;20237;-49
2023/12/21 07:14:05;;;;;;;0.60;0.60;;;;;;;7.25;100.00;97613.91;4135058;28;20709;-52
2023/12/21 07:16:06;;;;;;;0.80;0.80;;;;;;;7.28;100.00;97630.53;4137805;28;20623;-51
2023/12/21 07:18:08;;;;;;;0.80;0.80;;;;;;;7.30;100.00;97627.56;4136452;28;20230;-54
2023/12/21 07:20:11;;;;;;;0.60;0.60;;;;;;;7.29;100.00;97642.25;4136047;28;20292;-53
2023/12/21 07:22:12;;;;;;;0.70;0.70;;;;;;;7.28;100.00;97655.03;4127438;28;20256;-52
2023/12/21 07:24:14;;;;;;;0.88;0.88;;;;;;;7.31;100.00;97659.16;4137457;28;20232;-53
2023/12/21 07:26:16;;;;;;;0.55;0.55;;;;;;;7.31;100.00;97672.75;4136194;28;20224;-52
2023/12/21 07:28:18;;;;;;;0.90;0.90;;;;;;;7.30;100.00;97663.75;4136747;28;20222;-50
2023/12/21 07:30:20;;;;;;;0.80;0.80;;;;;;;7.32;100.00;97652.63;4139986;28;20221;-51
2023/12/21 07:32:22;;;;;;;0.60;0.60;;;;;;;7.28;100.00;97646.88;4139140;28;20675;-50
2023/12/21 07:34:24;;;;;;;0.60;0.60;;;;;;;7.36;100.00;97637.47;4141713;28;20610;-54
2023/12/21 07:36:25;;;;;;;0.80;0.80;;;;;;;7.35;100.00;97624.94;4137534;28;20292;-55
2023/12/21 07:38:27;;;;;;;0.68;0.68;;;;;;;7.33;100.00;97627.06;4143320;28;20315;-50
2023/12/21 07:40:29;;;;;;;0.80;0.80;;;;;;;7.32;100.00;97619.97;4137808;28;20222;-50
2023/12/21 07:42:31;;;;;;;1.55;0.93;;;;;;;7.32;100.00;97611.81;4144076;28;20223;-55
2023/12/21 07:44:35;;;;;;;0.80;0.80;;;;;;;7.33;100.00;97610.72;4137542;28;20209;-54
2023/12/21 07:46:37;;;;;;;1.38;0.70;;;;;;;7.39;100.00;97626.91;4137191;28;20267;-52
2023/12/21 07:48:39;;;;;;;0.65;0.65;;;;;;;7.39;100.00;97615.19;4140359;28;20261;-50
2023/12/21 07:50:41;;;;;;;0.70;0.70;;;;;;;7.39;100.00;97620.63;4139270;28;20201;-51
2023/12/21 07:52:43;;;;;;;0.50;0.50;;;;;;;7.43;100.00;97619.06;4117640;28;20226;-50
2023/12/21 07:54:45;;;;;;;0.70;0.70;;;;;;;7.41;100.00;97600.25;4137120;28;20239;-50
2023/12/21 07:56:47;;;;;;;0.80;0.80;;;;;;;7.42;100.00;97611.97;4139557;28;20213;-50
2023/12/21 07:58:49;;;;;;;0.70;0.70;;;;;;;7.45;100.00;97620.44;4132738;28;20234;-51
2023/12/21 08:00:50;;;;;;;0.60;0.60;;;;;;;7.45;100.00;97616.88;4134555;28;20209;-50
2023/12/21 08:02:52;;;;;;;0.93;0.93;;;;;;;7.47;100.00;97590.25;4144206;28;20249;-50
2023/12/21 08:04:54;;;;;;;0.98;0.98;;;;;;;7.46;100.00;97599.47;4137486;28;20216;-51
2023/12/21 08:06:56;;;;;;;0.57;0.57;;;;;;;7.48;100.00;97597.34;4134658;28;20228;-49
2023/12/21 08:08:58;;;;;;;0.60;0.60;;;;;;;7.49;100.00;97588.09;4137507;28;20225;-49
2023/12/21 08:11:00;;;;;;;0.70;0.70;;;;;;;7.50;100.00;97574.22;4131934;28;20241;-50
2023/12/21 08:13:02;;;;;;;0.60;0.60;;;;;;;7.48;100.00;97586.47;4137035;28;20284;-49
2023/12/21 08:15:04;;;;;;;0.70;0.70;;;;;;;7.48;100.00;97570.94;4138375;28;20201;-49
2023/12/21 08:17:09;;;;;;;0.60;0.60;;;;;;;7.54;100.00;97579.97;4140150;28;20213;-50
2023/12/21 08:19:12;;;;;;;0.90;0.90;;;;;;;7.51;100.00;97572.34;4138378;28;20312;-50
2023/12/21 08:21:14;;;;;;;0.70;0.70;;;;;;;7.50;100.00;97596.00;4122341;28;20213;-50
2023/12/21 08:23:17;;;;;;;0.47;0.47;;;;;;;7.50;100.00;97576.94;4135838;28;20214;-50
2023/12/21 08:25:18;;;;;;;0.60;0.60;;;;;;;7.51;100.00;97569.63;4136223;28;20263;-50
2023/12/21 08:27:20;;;;;;;0.65;0.65;;;;;;;7.52;100.00;97571.25;4136399;28;20643;-49
2023/12/21 08:29:22;;;;;;;0.70;0.70;;;;;;;7.52;100.00;97572.09;4137209;28;20213;-50
2023/12/21 08:31:25;;;;;;;0.55;0.55;;;;;;;7.54;100.00;97563.66;4154694;28;20215;-50
2023/12/21 08:33:27;;;;;;;0.63;0.63;;;;;;;7.54;100.00;97569.94;4141606;28;20280;-50
2023/12/21 08:35:28;;;;;;;0.57;0.57;;;;;;;7.53;100.00;97562.00;4136796;28;20414;-50
2023/12/21 08:37:30;;;;;;;0.77;0.77;;;;;;;7.48;100.00;97565.50;4135855;28;20210;-57
2023/12/21 08:39:32;;;;;;;0.70;0.70;;;;;;;7.51;100.00;97564.16;4136264;28;20662;-50
2023/12/21 08:41:34;;;;;;;0.60;0.60;;;;;;;7.54;100.00;97563.66;4144615;28;20984;-50
2023/12/21 08:43:36;;;;;;;0.70;0.70;;;;;;;7.54;100.00;97571.81;4137833;28;20221;-53
2023/12/21 08:45:38;;;;;;;0.70;0.70;;;;;;;7.53;100.00;97554.69;4139621;28;20213;-50
2023/12/21 08:47:43;;;;;;;0.63;0.63;;;;;;;7.55;100.00;97549.00;4140009;28;20226;-49
2023/12/21 08:49:45;;;;;;;0.82;0.82;;;;;;;7.54;100.00;97541.88;4138018;28;20277;-51
2023/12/21 08:51:47;;;;;;;0.68;0.68;;;;;;;7.53;100.00;97554.69;4141365;28;20205;-50
2023/12/21 08:53:49;;;;;;;0.70;0.70;;;;;;;7.57;100.00;97544.09;4143479;28;20764;-50
2023/12/21 08:55:51;;;;;;;0.70;0.70;;;;;;;7.60;100.00;97546.31;4142200;28;20259;-50
2023/12/21 08:57:53;;;;;;;2.33;2.00;;;;;;;7.60;100.00;97527.25;4131614;28;20245;-49
2023/12/21 08:59:55;;;;;;;0.80;0.80;;;;;;;7.59;100.00;97545.50;4138343;28;20219;-50
2023/12/21 09:01:58;;;;;;;0.52;0.52;;;;;;;7.59;100.00;97537.34;4136093;28;20698;-51
2023/12/21 09:04:01;;;;;;;0.75;0.75;;;;;;;7.61;100.00;97528.91;4141645;28;20197;-50
2023/12/21 09:06:04;;;;;;;0.60;0.60;;;;;;;7.61;100.00;97504.41;4155134;28;20336;-51
2023/12/21 09:08:06;;;;;;;0.73;0.73;;;;;;;7.62;100.00;97495.16;4142757;28;20236;-49
2023/12/21 09:10:08;;;;;;;0.60;0.60;;;;;;;7.67;100.00;97503.38;4144669;28;20206;-50
2023/12/21 09:12:10;;;;;;;0.70;0.70;;;;;;;7.64;100.00;97484.84;4138091;28;20678;-50
2023/12/21 09:14:11;;;;;;;0.80;0.80;;;;;;;7.69;100.00;97468.56;4146085;28;20236;-50
2023/12/21 09:16:15;;;;;;;0.70;0.70;;;;;;;7.68;100.00;97472.38;4147059;28;20201;-49
2023/12/21 09:18:18;;;;;;;0.77;0.77;;;;;;;7.70;100.00;97484.63;4142757;28;20801;-49
2023/12/21 09:20:20;;;;;;;0.60;0.60;;;;;;;7.69;100.00;97490.34;4146112;28;20275;-49
2023/12/21 09:22:22;;;;;;;4.18;0.90;;;;;;;7.73;100.00;97475.13;4137128;28;20592;-49
2023/12/21 09:24:24;;;;;;;0.70;0.70;;;;;;;7.74;100.00;97450.38;4141431;28;20233;-50
2023/12/21 09:26:25;;;;;;;0.68;0.68;;;;;;;7.74;100.00;97457.69;4140030;28;20210;-50
2023/12/21 09:28:27;;;;;;;0.65;0.65;;;;;;;7.74;100.00;97438.63;4140871;28;20264;-49
2023/12/21 09:30:30;;;;;;;0.60;0.60;;;;;;;7.73;100.00;97453.34;4137402;28;20202;-49
2023/12/21 09:32:32;;;;;;;0.75;0.75;;;;;;;7.78;100.00;97462.41;4137487;28;20236;-50
2023/12/21 09:34:34;;;;;;;0.60;0.60;;;;;;;7.81;100.00;97469.22;4137258;28;20336;-51
2023/12/21 09:36:36;;;;;;;0.60;0.60;;;;;;;7.83;100.00;97475.22;4138607;28;20220;-53